Time;durP1;ratioP1;P1;durP2;ratioP2;P2;SDS_P1;SDS_P2;PMS_P1;PMS_P2;Temp;Humidity;BMP_temperature;BMP_pressure;BME280_temperature;BME280_humidity;BME280_pressure;Samples;Min_cycle;Max_cycle;Signal;HPM_P1;HPM_P2
2021/06/01 00:01:18;;;;;;;4.00;3.70;;;12.60;91.60;;;;;;4988790;28;20188;-61
2021/06/01 00:03:44;;;;;;;4.20;3.67;;;12.70;91.70;;;;;;4990337;28;20481;-60
2021/06/01 00:06:09;;;;;;;5.50;3.90;;;12.80;91.90;;;;;;4987981;28;20237;-60
2021/06/01 00:08:35;;;;;;;4.30;3.53;;;12.30;91.90;;;;;;4988795;28;20405;-61
2021/06/01 00:11:01;;;;;;;4.53;4.20;;;12.40;92.40;;;;;;4989440;28;20412;-61
2021/06/01 00:13:27;;;;;;;3.70;3.40;;;12.30;92.70;;;;;;4988903;28;20186;-61
2021/06/01 00:15:52;;;;;;;4.33;3.90;;;12.30;92.90;;;;;;4989408;28;20531;-61
2021/06/01 00:18:18;;;;;;;4.00;3.70;;;12.30;93.10;;;;;;4992985;28;20180;-60
2021/06/01 00:20:44;;;;;;;4.10;3.80;;;12.00;93.30;;;;;;4992485;28;20176;-61
2021/06/01 00:23:10;;;;;;;3.80;3.50;;;12.20;93.70;;;;;;4993091;28;20265;-61
2021/06/01 00:25:35;;;;;;;4.60;4.20;;;12.30;93.90;;;;;;5008878;28;20217;-61
2021/06/01 00:28:04;;;;;;;4.23;3.83;;;12.20;93.60;;;;;;4992531;28;20442;-60
2021/06/01 00:30:30;;;;;;;3.90;3.50;;;12.00;93.70;;;;;;4992227;28;20785;-61
2021/06/01 00:32:55;;;;;;;4.37;4.00;;;11.90;94.00;;;;;;4992701;28;20190;-60
2021/06/01 00:35:21;;;;;;;3.80;3.40;;;11.90;94.20;;;;;;4992544;28;20219;-61
2021/06/01 00:37:47;;;;;;;4.17;3.77;;;11.80;94.30;;;;;;4992216;28;20242;-60
2021/06/01 00:40:12;;;;;;;4.83;3.97;;;11.70;94.60;;;;;;4992169;28;20218;-61
2021/06/01 00:42:38;;;;;;;4.40;4.00;;;12.00;95.00;;;;;;4992584;28;20274;-60
2021/06/01 00:45:04;;;;;;;4.27;3.97;;;11.60;95.10;;;;;;4992023;28;20300;-61
2021/06/01 00:47:30;;;;;;;4.60;4.20;;;11.70;95.20;;;;;;4992168;28;20194;-61
2021/06/01 00:49:56;;;;;;;3.77;3.47;;;11.80;95.50;;;;;;4991594;28;20236;-61
2021/06/01 00:52:21;;;;;;;3.80;3.30;;;11.80;95.80;;;;;;4990691;28;20194;-61
2021/06/01 00:54:47;;;;;;;5.27;4.03;;;11.60;96.20;;;;;;4991898;28;20215;-61
2021/06/01 00:57:13;;;;;;;4.30;3.90;;;11.80;96.70;;;;;;4991983;28;20194;-61
2021/06/01 00:59:39;;;;;;;4.57;4.13;;;11.50;96.50;;;;;;4991635;28;20217;-61
2021/06/01 01:02:05;;;;;;;5.13;4.47;;;11.70;96.70;;;;;;4992295;28;20189;-62
2021/06/01 01:04:32;;;;;;;4.45;4.05;;;11.50;96.70;;;;;;4992027;28;20659;-61
2021/06/01 01:07:13;;;;;;;4.70;4.20;;;11.30;96.70;;;;;;4991179;28;20211;-61
2021/06/01 01:09:43;;;;;;;3.80;3.50;;;11.50;97.00;;;;;;4991448;28;20185;-62
2021/06/01 01:12:15;;;;;;;4.13;3.83;;;11.40;97.30;;;;;;4991766;28;20552;-61
2021/06/01 01:14:53;;;;;;;4.70;4.30;;;11.40;97.40;;;;;;4991808;28;20212;-61
2021/06/01 01:17:35;;;;;;;4.25;3.85;;;11.30;97.60;;;;;;4991938;28;20225;-62
2021/06/01 01:20:07;;;;;;;5.47;4.28;;;11.40;97.50;;;;;;4991370;28;20175;-61
2021/06/01 01:22:54;;;;;;;4.20;3.90;;;11.30;97.60;;;;;;4991543;28;20240;-61
2021/06/01 01:25:40;;;;;;;4.50;4.10;;;11.50;97.80;;;;;;4990224;28;20203;-61
2021/06/01 01:28:27;;;;;;;4.80;4.38;;;11.30;97.80;;;;;;4983371;28;20232;-61
2021/06/01 01:30:57;;;;;;;3.92;3.63;;;11.10;98.00;;;;;;4990910;28;20303;-61
2021/06/01 01:33:26;;;;;;;6.72;4.60;;;10.60;97.90;;;;;;4992348;28;20248;-61
2021/06/01 01:35:56;;;;;;;4.30;3.85;;;11.20;98.50;;;;;;4991263;28;20744;-61
2021/06/01 01:38:24;;;;;;;4.20;3.80;;;11.00;98.30;;;;;;4991453;28;20251;-62
2021/06/01 01:40:52;;;;;;;4.60;4.20;;;11.20;98.50;;;;;;4986776;28;20177;-61
2021/06/01 01:43:23;;;;;;;4.38;3.97;;;11.00;98.70;;;;;;4992452;28;20191;-61
2021/06/01 01:45:53;;;;;;;4.60;4.20;;;11.00;99.00;;;;;;4991010;28;20205;-62
2021/06/01 01:51:18;;;;;;;4.28;3.85;;;11.00;99.50;;;;;;4991515;28;20285;-62
2021/06/01 01:53:51;;;;;;;5.05;4.57;;;11.00;99.60;;;;;;4991111;28;20591;-61
2021/06/01 01:56:20;;;;;;;4.30;3.90;;;11.00;99.90;;;;;;4990755;28;20237;-62
2021/06/01 01:58:48;;;;;;;5.60;4.32;;;10.70;99.90;;;;;;4984485;28;20173;-61
2021/06/01 02:01:15;;;;;;;4.30;4.00;;;10.70;99.90;;;;;;4990844;28;20184;-62
2021/06/01 02:03:41;;;;;;;4.72;4.32;;;11.00;99.90;;;;;;4991214;28;20186;-61
2021/06/01 02:06:08;;;;;;;5.00;4.20;;;10.70;99.90;;;;;;4989956;28;20284;-61
2021/06/01 02:08:37;;;;;;;4.38;3.97;;;10.70;99.90;;;;;;4990726;28;20473;-61
2021/06/01 02:11:03;;;;;;;4.80;4.40;;;10.80;99.90;;;;;;4990499;28;20331;-61
2021/06/01 02:13:30;;;;;;;4.30;3.95;;;10.70;99.90;;;;;;4990811;28;20189;-61
2021/06/01 02:15:56;;;;;;;4.40;4.10;;;10.40;99.90;;;;;;4990277;28;20299;-61
2021/06/01 02:18:22;;;;;;;4.73;4.33;;;10.60;99.90;;;;;;4990803;28;20272;-61
2021/06/01 02:20:51;;;;;;;4.83;4.20;;;10.50;99.90;;;;;;4990583;28;20410;-60
2021/06/01 02:26:30;;;;;;;4.30;4.00;;;10.70;99.90;;;;;;4992516;28;20694;-61
2021/06/01 02:29:01;;;;;;;5.50;5.00;;;10.20;99.90;;;;;;4990442;28;20252;-60
2021/06/01 02:31:41;;;;;;;4.60;4.20;;;10.50;99.90;;;;;;4990010;28;20197;-60
2021/06/01 02:34:08;;;;;;;4.65;3.90;;;10.50;99.90;;;;;;4988808;28;20188;-60
2021/06/01 02:36:36;;;;;;;4.35;3.95;;;10.30;99.90;;;;;;4989798;28;20622;-61
2021/06/01 02:39:04;;;;;;;4.60;4.07;;;10.30;99.90;;;;;;4989108;28;20729;-61
2021/06/01 02:41:30;;;;;;;4.72;4.25;;;10.20;99.90;;;;;;4990679;28;20545;-61
2021/06/01 02:43:56;;;;;;;7.35;4.82;;;10.40;99.90;;;;;;4990232;28;20238;-61
2021/06/01 02:46:21;;;;;;;4.23;3.93;;;10.30;99.90;;;;;;4989603;28;20212;-61
2021/06/01 02:48:48;;;;;;;4.47;3.70;;;10.50;99.90;;;;;;5004605;28;20528;-61
2021/06/01 02:51:18;;;;;;;5.00;4.55;;;10.50;99.90;;;;;;4989776;28;20522;-60
2021/06/01 02:53:48;;;;;;;5.10;4.20;;;10.60;99.90;;;;;;4989168;28;20184;-61
2021/06/01 02:56:15;;;;;;;4.95;4.55;;;10.20;99.90;;;;;;4989441;28;20363;-61
2021/06/01 02:58:42;;;;;;;4.60;4.20;;;10.20;99.90;;;;;;4989568;28;20186;-61
2021/06/01 03:01:14;;;;;;;4.90;4.50;;;10.00;99.90;;;;;;4989904;28;20661;-61
2021/06/01 03:03:53;;;;;;;4.90;4.50;;;9.70;99.90;;;;;;4989602;28;20651;-60
2021/06/01 03:06:27;;;;;;;5.10;4.60;;;10.20;99.90;;;;;;4989777;28;20200;-60
2021/06/01 03:08:53;;;;;;;4.57;4.18;;;10.00;99.90;;;;;;4986298;28;20183;-61
2021/06/01 03:11:20;;;;;;;4.93;4.00;;;10.10;99.90;;;;;;4989482;28;20743;-61
2021/06/01 03:13:51;;;;;;;8.38;4.55;;;9.70;99.90;;;;;;4989635;28;20179;-60
2021/06/01 03:16:17;;;;;;;4.30;4.00;;;10.30;99.90;;;;;;4988808;28;20274;-61
2021/06/01 03:18:43;;;;;;;5.82;4.40;;;10.20;99.90;;;;;;4989460;28;20187;-61
2021/06/01 03:21:10;;;;;;;5.50;4.40;;;10.10;99.90;;;;;;4989491;28;20210;-61
2021/06/01 03:23:36;;;;;;;4.55;4.15;;;9.90;99.90;;;;;;4989664;28;20187;-61
2021/06/01 03:26:03;;;;;;;7.60;4.30;;;10.10;99.90;;;;;;4989335;28;20215;-60
2021/06/01 03:28:33;;;;;;;5.68;4.22;;;10.10;99.90;;;;;;4989208;28;20184;-61
2021/06/01 03:30:59;;;;;;;5.05;4.65;;;9.90;99.90;;;;;;4988877;28;20192;-61
2021/06/01 03:33:27;;;;;;;5.40;4.90;;;9.90;99.90;;;;;;4990995;28;20564;-61
2021/06/01 03:35:52;;;;;;;4.82;4.32;;;10.10;99.90;;;;;;4988598;28;20545;-61
2021/06/01 03:38:18;;;;;;;6.03;5.07;;;10.10;99.90;;;;;;4988833;28;20727;-61
2021/06/01 03:40:44;;;;;;;5.33;4.83;;;9.90;99.90;;;;;;4989324;28;20184;-61
2021/06/01 03:43:09;;;;;;;4.63;4.23;;;10.10;99.90;;;;;;4989044;28;20184;-60
2021/06/01 03:45:35;;;;;;;5.33;4.30;;;9.90;99.90;;;;;;4989239;28;20470;-61
2021/06/01 03:48:01;;;;;;;5.00;4.50;;;9.80;99.90;;;;;;4988978;28;20196;-61
2021/06/01 03:50:27;;;;;;;5.90;5.30;;;10.00;99.90;;;;;;4989648;28;20439;-61
2021/06/01 03:52:53;;;;;;;5.23;4.73;;;10.20;99.90;;;;;;4993199;28;20824;-61
2021/06/01 03:55:19;;;;;;;5.35;4.45;;;9.70;99.90;;;;;;4992937;28;20485;-61
2021/06/01 03:57:46;;;;;;;7.88;5.43;;;10.00;99.90;;;;;;4992894;28;20270;-61
2021/06/01 04:00:16;;;;;;;4.55;4.15;;;9.70;99.90;;;;;;4993200;28;20172;-61
2021/06/01 04:02:42;;;;;;;5.03;4.63;;;9.70;99.90;;;;;;4993095;28;20286;-61
2021/06/01 04:05:08;;;;;;;5.20;4.80;;;9.80;99.90;;;;;;4993081;28;20337;-60
2021/06/01 04:07:34;;;;;;;8.57;5.10;;;9.80;99.90;;;;;;4990582;28;20444;-61
2021/06/01 04:10:00;;;;;;;5.50;5.07;;;9.60;99.90;;;;;;4991712;28;20196;-61
2021/06/01 04:12:25;;;;;;;6.40;5.13;;;9.70;99.90;;;;;;4992658;28;20199;-61
2021/06/01 04:14:51;;;;;;;5.23;4.73;;;9.60;99.90;;;;;;4992642;28;20210;-62
2021/06/01 04:17:17;;;;;;;4.70;4.23;;;9.80;99.90;;;;;;4987568;28;20293;-61
2021/06/01 04:19:42;;;;;;;5.53;4.40;;;9.90;99.90;;;;;;4992866;28;20188;-58
2021/06/01 04:22:08;;;;;;;4.70;4.30;;;9.90;99.90;;;;;;4988458;28;20662;-58
2021/06/01 04:24:34;;;;;;;4.75;4.35;;;9.80;99.90;;;;;;4988660;28;20238;-58
2021/06/01 04:27:00;;;;;;;5.75;4.13;;;9.80;99.90;;;;;;4986233;28;20247;-58
2021/06/01 04:29:27;;;;;;;5.47;4.97;;;10.10;99.90;;;;;;4983871;28;20207;-56
2021/06/01 04:31:53;;;;;;;5.43;4.93;;;10.10;99.90;;;;;;4989548;28;20188;-55
2021/06/01 04:34:18;;;;;;;5.27;4.77;;;10.40;99.90;;;;;;4993260;28;20212;-55
2021/06/01 04:36:44;;;;;;;5.57;5.07;;;10.20;99.90;;;;;;4991707;28;20201;-56
2021/06/01 04:39:10;;;;;;;5.03;4.53;;;10.10;99.90;;;;;;4983877;28;20196;-60
2021/06/01 04:41:37;;;;;;;4.43;4.03;;;10.40;99.90;;;;;;4982056;28;20184;-55
2021/06/01 04:44:03;;;;;;;5.55;4.97;;;10.40;99.90;;;;;;4984838;28;20188;-55
2021/06/01 04:46:29;;;;;;;5.50;5.00;;;10.60;99.90;;;;;;4984429;28;20224;-55
2021/06/01 04:48:55;;;;;;;7.20;4.50;;;10.70;99.90;;;;;;4985010;28;20267;-58
2021/06/01 04:51:20;;;;;;;8.25;5.07;;;10.80;99.90;;;;;;4984291;28;20926;-55
2021/06/01 04:53:51;;;;;;;5.97;4.53;;;11.00;99.90;;;;;;4985540;28;20198;-56
2021/06/01 04:56:18;;;;;;;4.80;4.40;;;11.20;99.90;;;;;;5001900;28;20229;-55
2021/06/01 04:58:44;;;;;;;6.57;4.70;;;10.80;99.90;;;;;;4986671;28;20277;-56
2021/06/01 05:01:10;;;;;;;6.77;5.00;;;11.10;99.90;;;;;;4985196;28;20276;-56
2021/06/01 05:03:36;;;;;;;5.70;4.73;;;10.90;99.90;;;;;;4984357;28;20184;-56
2021/06/01 05:06:02;;;;;;;4.78;4.28;;;11.50;99.90;;;;;;4986175;28;20513;-55
2021/06/01 05:08:27;;;;;;;4.97;4.57;;;11.20;99.80;;;;;;4984981;28;20223;-56
2021/06/01 05:10:53;;;;;;;4.77;4.37;;;11.60;99.50;;;;;;4981764;28;20203;-56
2021/06/01 05:13:19;;;;;;;5.67;4.60;;;11.60;99.40;;;;;;4985206;28;20292;-54
2021/06/01 05:15:45;;;;;;;6.70;4.30;;;11.80;99.20;;;;;;4984733;28;20228;-56
2021/06/01 05:18:11;;;;;;;5.35;4.85;;;11.90;99.20;;;;;;4985530;28;20560;-56
2021/06/01 05:20:38;;;;;;;5.20;4.70;;;12.00;99.10;;;;;;4980462;28;20400;-55
2021/06/01 05:23:03;;;;;;;9.75;4.75;;;12.30;99.10;;;;;;4981476;28;20286;-55
2021/06/01 05:25:32;;;;;;;7.70;5.27;;;12.30;98.60;;;;;;4982535;28;20627;-55
2021/06/01 05:27:58;;;;;;;5.00;4.60;;;12.50;98.80;;;;;;4987150;28;20545;-55
2021/06/01 05:30:33;;;;;;;5.78;5.05;;;12.60;98.50;;;;;;4989400;28;20187;-55
2021/06/01 05:35:31;;;;;;;5.85;5.15;;;12.50;97.70;;;;;;4992008;28;20214;-56
2021/06/01 05:37:57;;;;;;;7.90;4.72;;;12.80;97.70;;;;;;4986963;28;20638;-56
2021/06/01 05:40:23;;;;;;;5.00;4.60;;;13.10;97.50;;;;;;4988302;28;20233;-56
2021/06/01 05:42:48;;;;;;;5.60;4.83;;;12.80;96.70;;;;;;4991101;28;20179;-56
2021/06/01 05:45:14;;;;;;;5.40;4.90;;;13.10;97.00;;;;;;4989493;28;20207;-56
2021/06/01 05:47:40;;;;;;;5.10;4.70;;;13.10;96.30;;;;;;4990463;28;20285;-56
2021/06/01 05:50:06;;;;;;;5.17;4.70;;;13.30;95.60;;;;;;4985625;28;20453;-56
2021/06/01 05:52:35;;;;;;;5.65;5.15;;;13.60;95.60;;;;;;4991512;28;20281;-56
2021/06/01 05:55:04;;;;;;;6.28;4.95;;;13.60;95.10;;;;;;4988114;28;20606;-56
2021/06/01 05:57:29;;;;;;;5.50;5.00;;;13.80;94.50;;;;;;4989901;28;20639;-56
2021/06/01 05:59:55;;;;;;;6.33;4.80;;;14.20;94.00;;;;;;4989236;28;20188;-56
2021/06/01 06:02:21;;;;;;;6.50;5.90;;;14.00;93.00;;;;;;4992262;28;20318;-56
2021/06/01 06:04:46;;;;;;;6.00;5.40;;;14.30;93.20;;;;;;4986771;28;20543;-56
2021/06/01 06:07:12;;;;;;;8.10;5.80;;;14.50;93.10;;;;;;4985884;28;20188;-56
2021/06/01 06:09:38;;;;;;;6.13;5.63;;;14.40;92.80;;;;;;4989233;28;20609;-56
2021/06/01 06:12:04;;;;;;;5.80;5.30;;;14.50;92.90;;;;;;4985855;28;20215;-57
2021/06/01 06:14:29;;;;;;;7.18;4.45;;;14.60;93.00;;;;;;4985786;28;20236;-56
2021/06/01 06:16:59;;;;;;;5.40;5.00;;;14.80;92.20;;;;;;4985837;28;20213;-56
2021/06/01 06:19:25;;;;;;;5.65;5.15;;;14.60;91.50;;;;;;4987638;28;20226;-56
2021/06/01 06:21:50;;;;;;;4.83;4.43;;;15.00;91.60;;;;;;4988669;28;20179;-56
2021/06/01 06:24:16;;;;;;;7.20;6.40;;;15.10;91.50;;;;;;4989925;28;20208;-57
2021/06/01 06:26:42;;;;;;;6.20;5.70;;;15.50;91.40;;;;;;4985157;28;20206;-56
2021/06/01 06:29:07;;;;;;;4.73;4.30;;;15.70;91.00;;;;;;4988346;28;20553;-58
2021/06/01 06:31:33;;;;;;;5.20;4.60;;;15.80;89.50;;;;;;4986530;28;20198;-59
2021/06/01 06:34:00;;;;;;;6.20;4.63;;;16.20;88.60;;;;;;4989887;28;20405;-59
2021/06/01 06:36:26;;;;;;;6.28;4.97;;;16.20;87.40;;;;;;4986340;28;20215;-59
2021/06/01 06:38:51;;;;;;;5.73;5.13;;;16.50;87.40;;;;;;4989293;28;20611;-58
2021/06/01 06:41:17;;;;;;;7.27;5.20;;;16.30;86.30;;;;;;4988248;28;20187;-59
2021/06/01 06:43:49;;;;;;;5.80;5.00;;;16.50;86.00;;;;;;4988822;28;20330;-58
2021/06/01 06:46:26;;;;;;;4.32;3.92;;;16.60;85.40;;;;;;4984737;28;20538;-56
2021/06/01 06:48:52;;;;;;;6.35;5.75;;;16.80;82.00;;;;;;4982870;28;20179;-59
2021/06/01 06:51:19;;;;;;;4.00;3.70;;;16.80;82.00;;;;;;4988006;28;20617;-58
2021/06/01 06:53:53;;;;;;;4.90;4.40;;;17.20;79.30;;;;;;4989399;28;20442;-57
2021/06/01 06:56:21;;;;;;;6.97;5.60;;;17.40;79.40;;;;;;4988491;28;20704;-58
2021/06/01 06:58:47;;;;;;;6.38;5.47;;;17.80;79.70;;;;;;4986873;28;20182;-58
2021/06/01 07:01:13;;;;;;;6.17;4.97;;;18.20;78.50;;;;;;4989541;28;20256;-58
2021/06/01 07:03:39;;;;;;;4.03;3.60;;;19.20;73.70;;;;;;4987289;28;20929;-56
2021/06/01 07:06:05;;;;;;;2.87;2.67;;;21.20;65.40;;;;;;4988174;28;20465;-58
2021/06/01 07:08:31;;;;;;;3.60;3.30;;;23.00;58.00;;;;;;4987824;28;20196;-58
2021/06/01 07:10:57;;;;;;;6.30;3.40;;;24.60;54.10;;;;;;4990447;28;21003;-59
2021/06/01 07:13:30;;;;;;;3.40;3.10;;;26.50;50.60;;;;;;4988410;28;20535;-60
2021/06/01 07:15:55;;;;;;;3.47;3.20;;;28.30;45.00;;;;;;4987163;28;20295;-58
2021/06/01 07:18:21;;;;;;;4.90;3.13;;;28.80;41.80;;;;;;4987361;28;20436;-58
2021/06/01 07:20:46;;;;;;;2.80;2.60;;;29.70;40.50;;;;;;4985242;28;20660;-58
2021/06/01 07:23:13;;;;;;;3.13;2.90;;;30.80;37.40;;;;;;4986563;28;20268;-59
2021/06/01 07:25:38;;;;;;;2.87;2.70;;;30.30;37.70;;;;;;5004802;28;20685;-58
2021/06/01 07:28:04;;;;;;;2.90;2.70;;;31.60;36.30;;;;;;4987375;28;20512;-59
2021/06/01 07:30:30;;;;;;;3.13;2.87;;;31.90;34.10;;;;;;4988395;28;20198;-60
2021/06/01 07:32:58;;;;;;;3.37;3.07;;;31.30;34.60;;;;;;4988350;28;20187;-61
2021/06/01 07:35:24;;;;;;;3.10;2.90;;;30.70;34.70;;;;;;4987750;28;20542;-60
2021/06/01 07:37:50;;;;;;;3.13;2.70;;;31.10;34.10;;;;;;4988618;28;20805;-57
2021/06/01 07:40:16;;;;;;;3.57;2.90;;;30.90;34.70;;;;;;4981466;28;20462;-58
2021/06/01 07:42:42;;;;;;;3.20;3.00;;;32.30;33.00;;;;;;4987321;28;20190;-58
2021/06/01 07:45:08;;;;;;;3.23;3.03;;;32.50;32.60;;;;;;4988453;28;20466;-58
2021/06/01 07:47:34;;;;;;;3.23;3.03;;;32.10;32.10;;;;;;4984363;28;20188;-59
2021/06/01 07:49:59;;;;;;;3.40;3.10;;;32.00;31.90;;;;;;4988064;28;20434;-60
2021/06/01 07:52:27;;;;;;;3.17;2.97;;;31.40;32.50;;;;;;4988429;28;20467;-59
2021/06/01 07:54:53;;;;;;;3.50;3.30;;;32.20;31.90;;;;;;4984319;28;20211;-59
2021/06/01 07:57:19;;;;;;;3.10;2.90;;;34.50;30.70;;;;;;4986693;28;20814;-60
2021/06/01 07:59:44;;;;;;;2.97;2.77;;;35.00;28.80;;;;;;4987225;28;20435;-59
2021/06/01 08:02:10;;;;;;;3.30;3.10;;;35.60;28.40;;;;;;4985298;28;20190;-59
2021/06/01 08:04:36;;;;;;;4.37;3.30;;;34.80;28.20;;;;;;4985311;28;20772;-59
2021/06/01 08:07:05;;;;;;;3.27;3.03;;;33.80;29.10;;;;;;4987768;28;20670;-58
2021/06/01 08:09:31;;;;;;;3.40;3.10;;;32.30;29.90;;;;;;4986921;28;20879;-59
2021/06/01 08:11:57;;;;;;;3.27;2.93;;;31.60;30.30;;;;;;4986228;28;20605;-59
2021/06/01 08:14:23;;;;;;;3.40;3.20;;;31.80;30.80;;;;;;4986046;28;20521;-59
2021/06/01 08:16:49;;;;;;;2.90;2.70;;;31.80;30.80;;;;;;4986834;28;20238;-58
2021/06/01 08:19:18;;;;;;;3.40;3.20;;;32.60;30.00;;;;;;4988360;28;20183;-59
2021/06/01 08:24:09;;;;;;;3.10;2.90;;;32.20;29.90;;;;;;4984875;28;20451;-59
2021/06/01 08:26:35;;;;;;;3.20;3.00;;;31.30;30.80;;;;;;4983971;28;20584;-58
2021/06/01 08:29:01;;;;;;;3.17;2.80;;;30.90;31.10;;;;;;4987060;28;20343;-59
2021/06/01 08:31:27;;;;;;;3.30;3.00;;;30.80;31.40;;;;;;4987397;28;20471;-60
2021/06/01 08:33:53;;;;;;;3.30;3.00;;;30.90;31.30;;;;;;4985263;28;20654;-57
2021/06/01 08:36:18;;;;;;;2.87;2.67;;;30.80;30.90;;;;;;4987517;28;20752;-60
2021/06/01 08:38:44;;;;;;;3.00;2.80;;;31.50;30.70;;;;;;4991357;28;20493;-60
2021/06/01 08:41:16;;;;;;;3.30;3.03;;;32.40;29.50;;;;;;4993827;28;20184;-54
2021/06/01 08:43:42;;;;;;;3.70;3.20;;;32.60;29.50;;;;;;4991648;28;20246;-57
2021/06/01 08:46:09;;;;;;;2.73;2.53;;;32.90;28.10;;;;;;4991486;28;20454;-56
2021/06/01 08:48:35;;;;;;;3.00;2.80;;;33.20;27.50;;;;;;4989335;28;20179;-56
2021/06/01 08:51:01;;;;;;;2.63;2.50;;;32.80;28.00;;;;;;4989512;28;20981;-57
2021/06/01 08:53:26;;;;;;;2.80;2.60;;;33.20;26.90;;;;;;4991859;28;20431;-60
2021/06/01 08:55:52;;;;;;;4.13;2.60;;;33.10;27.10;;;;;;4990335;28;20225;-56
2021/06/01 08:58:20;;;;;;;3.17;2.80;;;33.00;27.10;;;;;;4986342;28;20202;-56
2021/06/01 09:00:47;;;;;;;2.90;2.70;;;33.60;26.70;;;;;;4990642;28;20262;-56
2021/06/01 09:03:19;;;;;;;3.13;2.93;;;33.50;26.80;;;;;;4990953;28;20466;-57
2021/06/01 09:22:50;;;;;;;2.87;2.67;;;31.30;27.80;;;;;;4956324;28;20473;-60
2021/06/01 09:28:07;;;;;;;3.47;2.57;;;31.50;28.10;;;;;;4987020;28;20493;-60
2021/06/01 09:30:35;;;;;;;3.20;2.90;;;32.50;27.30;;;;;;4990592;28;20441;-59
2021/06/01 09:33:03;;;;;;;2.93;2.73;;;32.40;26.60;;;;;;4991010;28;20434;-59
2021/06/01 09:35:56;;;;;;;2.77;2.53;;;33.20;25.90;;;;;;4991210;28;20477;-59
2021/06/01 09:38:23;;;;;;;3.13;2.50;;;33.10;25.90;;;;;;4988533;28;20454;-60
2021/06/01 09:41:09;;;;;;;5.13;4.73;;;32.70;26.50;;;;;;4990855;28;20485;-59
2021/06/01 09:43:59;;;;;;;3.00;2.80;;;31.90;26.90;;;;;;4983964;28;20455;-59
2021/06/01 09:46:30;;;;;;;4.07;2.50;;;32.20;26.90;;;;;;4989298;28;20458;-60
2021/06/01 09:49:16;;;;;;;2.97;2.67;;;33.00;26.50;;;;;;4979794;28;20446;-60
2021/06/01 09:51:45;;;;;;;2.70;2.50;;;33.40;26.10;;;;;;4986556;28;20584;-60
2021/06/01 09:54:38;;;;;;;5.20;2.60;;;32.90;25.70;;;;;;4979719;28;20439;-62
2021/06/01 09:57:24;;;;;;;3.20;3.00;;;31.90;26.50;;;;;;4980585;28;20813;-60
2021/06/01 10:00:25;;;;;;;3.07;2.87;;;31.30;27.60;;;;;;4976513;28;20450;-59
2021/06/01 10:03:03;;;;;;;2.90;2.70;;;31.00;28.10;;;;;;4978601;28;20480;-60
2021/06/01 10:05:30;;;;;;;3.50;3.20;;;31.50;28.20;;;;;;4984429;28;20458;-60
2021/06/01 10:07:58;;;;;;;2.60;2.40;;;32.00;27.50;;;;;;4987500;28;20446;-61
2021/06/01 10:10:27;;;;;;;2.80;2.60;;;32.40;26.70;;;;;;4987716;28;21006;-60
2021/06/01 10:12:59;;;;;;;2.63;2.43;;;32.90;26.40;;;;;;4987051;28;20439;-60
2021/06/01 10:15:27;;;;;;;3.07;2.87;;;33.20;26.70;;;;;;4985013;28;20542;-60
2021/06/01 10:17:54;;;;;;;2.97;2.77;;;33.00;26.80;;;;;;4987411;28;20434;-60
2021/06/01 10:20:22;;;;;;;2.90;2.70;;;33.10;26.40;;;;;;4988044;28;20431;-60
2021/06/01 10:22:49;;;;;;;2.60;2.40;;;33.80;25.70;;;;;;4986911;28;20574;-58
2021/06/01 10:25:16;;;;;;;2.90;2.70;;;33.80;25.60;;;;;;4985270;28;20474;-59
2021/06/01 10:27:46;;;;;;;3.07;2.73;;;33.50;26.00;;;;;;4988016;28;20442;-58
2021/06/01 10:30:13;;;;;;;3.37;3.10;;;33.60;26.10;;;;;;4982382;28;21046;-59
2021/06/01 10:32:47;;;;;;;2.80;2.60;;;33.20;26.00;;;;;;4988840;28;20525;-59
2021/06/01 10:35:16;;;;;;;2.90;2.70;;;33.50;26.70;;;;;;4980608;28;20555;-59
2021/06/01 10:51:58;;;;;;;2.87;2.67;;;32.60;27.00;;;;;;4967821;28;20446;-57
2021/06/01 10:54:43;;;;;;;3.60;3.33;;;32.50;27.30;;;;;;4986511;28;20525;-58
2021/06/01 10:57:14;;;;;;;3.43;2.73;;;32.30;27.20;;;;;;4986241;28;20462;-58
2021/06/01 11:02:24;;;;;;;3.80;3.40;;;32.80;26.70;;;;;;4983321;28;20438;-58
2021/06/01 11:05:12;;;;;;;3.33;2.83;;;33.30;26.80;;;;;;4981879;28;20513;-57
2021/06/01 11:07:59;;;;;;;2.50;2.40;;;33.60;26.10;;;;;;4987553;28;20435;-57
2021/06/01 11:10:45;;;;;;;3.40;3.10;;;33.70;25.60;;;;;;4987296;28;20500;-56
2021/06/01 11:13:18;;;;;;;3.20;3.00;;;32.50;26.00;;;;;;4988977;28;20512;-58
2021/06/01 11:15:53;;;;;;;3.53;2.80;;;31.80;27.10;;;;;;4988164;28;20481;-57
2021/06/01 11:18:39;;;;;;;3.77;3.47;;;32.00;26.80;;;;;;4987033;28;20447;-57
2021/06/01 11:21:28;;;;;;;2.87;2.67;;;31.90;27.00;;;;;;4988322;28;20431;-57
2021/06/01 11:32:57;;;;;;;3.17;2.90;;;30.00;28.60;;;;;;4987947;28;20440;-58
2021/06/01 11:35:53;;;;;;;3.43;3.13;;;29.30;28.80;;;;;;4983744;28;20486;-56
2021/06/01 11:38:29;;;;;;;2.90;2.43;;;29.20;29.00;;;;;;4971280;28;20953;-57
2021/06/01 11:41:03;;;;;;;2.77;2.57;;;29.30;28.40;;;;;;4983194;28;20450;-56
2021/06/01 11:43:30;;;;;;;3.10;2.90;;;29.20;28.70;;;;;;4987392;28;20472;-59
2021/06/01 11:53:45;;;;;;;3.43;3.13;;;27.10;31.40;;;;;;4984929;28;20548;-60
2021/06/01 11:56:10;;;;;;;3.23;2.93;;;26.90;32.50;;;;;;5002477;28;20633;-57
2021/06/01 12:04:56;;;;;;;3.60;3.30;;;26.00;33.60;;;;;;4983486;28;20532;-56
2021/06/01 12:19:09;;;;;;;3.10;2.90;;;24.90;34.50;;;;;;4987334;28;20433;-60
2021/06/01 12:21:54;;;;;;;3.30;3.00;;;24.90;35.70;;;;;;4986257;28;20434;-57
2021/06/01 12:24:26;;;;;;;3.20;3.00;;;24.70;36.10;;;;;;4988968;28;20438;-57
2021/06/01 12:32:43;;;;;;;3.10;2.90;;;24.80;36.90;;;;;;4988534;28;20449;-59
2021/06/01 12:35:40;;;;;;;3.50;3.20;;;24.90;36.90;;;;;;4991754;28;20478;-58
2021/06/01 13:39:55;;;;;;;3.73;3.20;;;24.00;36.00;;;;;;4986780;28;20750;-59
2021/06/01 13:48:12;;;;;;;4.63;3.00;;;24.00;37.20;;;;;;4987958;28;20500;-58
2021/06/01 13:55:39;;;;;;;2.93;2.73;;;24.00;37.00;;;;;;4984732;28;20207;-58
2021/06/01 14:00:41;;;;;;;2.80;2.60;;;23.90;36.70;;;;;;4991750;28;20529;-58
2021/06/01 14:36:29;;;;;;;4.23;3.53;;;23.90;38.00;;;;;;4979159;28;20225;-58
2021/06/01 15:49:42;;;;;;;4.23;3.57;;;23.70;40.00;;;;;;4983925;28;20800;-57
2021/06/01 17:03:26;;;;;;;2.90;2.70;;;23.40;39.10;;;;;;4990607;28;20442;-58
2021/06/01 17:05:55;;;;;;;3.10;2.80;;;23.30;39.50;;;;;;4991380;28;20870;-58
2021/06/01 17:09:01;;;;;;;3.30;3.00;;;23.40;39.80;;;;;;4991415;28;20478;-59
2021/06/01 17:11:35;;;;;;;3.00;2.80;;;23.40;40.00;;;;;;4991035;28;20439;-56
2021/06/01 17:14:03;;;;;;;3.60;2.80;;;23.40;39.00;;;;;;4984740;28;20443;-57
2021/06/01 17:35:28;;;;;;;4.37;2.63;;;23.30;39.40;;;;;;4988403;28;20513;-57
2021/06/01 17:37:54;;;;;;;4.50;2.47;;;23.30;39.40;;;;;;5001003;28;20466;-56
2021/06/01 17:40:21;;;;;;;2.83;2.63;;;23.20;39.10;;;;;;4980923;28;20979;-55
2021/06/01 17:42:56;;;;;;;3.40;3.20;;;23.20;39.70;;;;;;4983477;28;20233;-58
2021/06/01 17:45:24;;;;;;;4.17;2.90;;;23.10;39.50;;;;;;4982856;28;20461;-58
2021/06/01 17:47:58;;;;;;;3.30;3.00;;;23.20;39.80;;;;;;4984099;28;20530;-57
2021/06/01 17:50:24;;;;;;;3.03;2.73;;;23.10;39.90;;;;;;4983564;28;21047;-57
2021/06/01 17:52:55;;;;;;;3.00;2.80;;;23.10;40.00;;;;;;4986371;28;20435;-57
2021/06/01 17:55:22;;;;;;;3.07;2.77;;;23.10;39.80;;;;;;4983465;28;20588;-57
2021/06/01 17:57:49;;;;;;;5.17;2.60;;;23.10;39.90;;;;;;4995970;28;20432;-56
2021/06/01 18:00:16;;;;;;;2.90;2.70;;;23.00;40.00;;;;;;4982860;28;20442;-58
2021/06/01 18:02:46;;;;;;;4.10;3.10;;;23.00;40.10;;;;;;4986632;28;20439;-57
2021/06/01 18:05:13;;;;;;;3.10;2.80;;;23.00;40.60;;;;;;4983160;28;20471;-58
2021/06/01 18:07:54;;;;;;;3.23;3.00;;;23.00;40.70;;;;;;4982533;28;20442;-59
2021/06/01 18:13:43;;;;;;;3.20;3.00;;;22.90;41.00;;;;;;4986890;28;20497;-58
2021/06/01 19:25:06;;;;;;;4.38;3.97;;;21.40;47.70;;;;;;4988653;28;20649;-57
2021/06/01 19:50:12;;;;;;;3.92;3.63;;;20.50;49.10;;;;;;4989846;28;20230;-60
2021/06/01 19:52:44;;;;;;;3.67;3.03;;;20.40;49.10;;;;;;4988887;28;20660;-60
2021/06/01 19:55:12;;;;;;;3.55;3.25;;;20.40;49.50;;;;;;4988372;28;20277;-60
2021/06/01 19:57:38;;;;;;;3.78;3.50;;;20.30;49.70;;;;;;4988963;28;20187;-60
2021/06/01 20:00:07;;;;;;;3.92;3.58;;;20.10;49.50;;;;;;4988610;28;20291;-60
2021/06/01 20:02:34;;;;;;;3.78;3.42;;;20.20;50.00;;;;;;4988553;28;20175;-60
2021/06/01 20:05:03;;;;;;;4.43;3.88;;;20.10;50.40;;;;;;4988103;28;20643;-60
2021/06/01 20:07:30;;;;;;;7.15;3.72;;;20.10;50.50;;;;;;4987868;28;20519;-60
2021/06/01 20:09:56;;;;;;;4.05;3.75;;;20.00;51.00;;;;;;4987796;28;20278;-60
2021/06/01 20:12:23;;;;;;;6.25;4.40;;;20.00;50.50;;;;;;4988959;28;20192;-60
2021/06/01 20:14:51;;;;;;;4.15;3.78;;;19.90;51.40;;;;;;4988156;28;20323;-60
2021/06/01 20:17:32;;;;;;;3.20;3.00;;;19.90;51.50;;;;;;4988792;28;20179;-60
2021/06/01 20:20:19;;;;;;;4.80;3.80;;;19.80;51.50;;;;;;4986609;28;20652;-60
2021/06/01 20:22:54;;;;;;;4.03;3.65;;;19.70;51.50;;;;;;4987658;28;20638;-60
2021/06/01 20:25:21;;;;;;;4.28;3.72;;;19.60;51.80;;;;;;4985454;28;20577;-60
2021/06/01 20:27:55;;;;;;;5.43;4.65;;;19.60;52.60;;;;;;4988436;28;20194;-60
2021/06/01 20:30:28;;;;;;;4.50;4.20;;;19.60;52.30;;;;;;4982700;28;20271;-60